Time;durP1;ratioP1;P1;durP2;ratioP2;P2;SDS_P1;SDS_P2;PMS_P1;PMS_P2;Temp;Humidity;BMP_temperature;BMP_pressure;BME280_temperature;BME280_humidity;BME280_pressure;Samples;Min_cycle;Max_cycle;Signal;HPM_P1;HPM_P2
2023/03/19 00:02:05;;;;;;;7.78;4.22;;;11.30;99.90;;;;;;4954614;28;20484;-49
2023/03/19 00:04:31;;;;;;;6.88;4.13;;;11.30;99.90;;;;;;4952373;28;20103;-50
2023/03/19 00:06:57;;;;;;;9.05;3.92;;;11.30;99.90;;;;;;4954172;28;20069;-48
2023/03/19 00:09:23;;;;;;;5.85;3.50;;;11.20;99.90;;;;;;4953703;28;20063;-50
2023/03/19 00:11:49;;;;;;;7.35;3.78;;;11.20;99.90;;;;;;4953496;28;20039;-46
2023/03/19 00:14:16;;;;;;;7.18;3.65;;;11.30;99.90;;;;;;4954980;28;20066;-45
2023/03/19 00:16:41;;;;;;;7.05;3.67;;;11.20;99.90;;;;;;4954693;28;20043;-50
2023/03/19 00:19:07;;;;;;;5.35;3.75;;;11.20;99.90;;;;;;4952507;29;20500;-49
2023/03/19 00:21:33;;;;;;;5.63;3.20;;;11.20;99.90;;;;;;4954688;29;20126;-49
2023/03/19 00:24:01;;;;;;;6.47;3.20;;;11.10;99.90;;;;;;4954519;28;20537;-49
2023/03/19 00:26:32;;;;;;;6.80;3.50;;;11.20;99.90;;;;;;4953467;28;20031;-49
2023/03/19 00:28:58;;;;;;;4.47;3.08;;;11.10;99.90;;;;;;4952883;29;20098;-48
2023/03/19 00:31:26;;;;;;;4.93;2.83;;;11.10;99.90;;;;;;4954232;28;20035;-49
2023/03/19 00:33:52;;;;;;;4.47;2.70;;;11.10;99.90;;;;;;4954337;28;20063;-50
2023/03/19 00:36:18;;;;;;;5.15;3.08;;;11.10;99.90;;;;;;4954357;28;20047;-48
2023/03/19 00:38:45;;;;;;;6.57;2.83;;;11.10;99.90;;;;;;4969084;28;20039;-49
2023/03/19 00:41:11;;;;;;;5.43;2.55;;;11.10;99.90;;;;;;4953125;28;20039;-47
2023/03/19 00:43:38;;;;;;;5.50;2.90;;;11.10;99.90;;;;;;4952822;28;20043;-47
2023/03/19 00:46:04;;;;;;;6.22;3.08;;;11.10;99.90;;;;;;4952921;29;20036;-50
2023/03/19 00:48:30;;;;;;;4.93;2.90;;;11.10;99.90;;;;;;4952965;28;20118;-48
2023/03/19 00:51:02;;;;;;;4.97;2.80;;;11.10;99.90;;;;;;4953942;28;20111;-48
2023/03/19 00:53:27;;;;;;;6.53;3.25;;;11.10;99.90;;;;;;4954231;28;20031;-49
2023/03/19 00:55:53;;;;;;;5.90;3.47;;;11.10;99.90;;;;;;4952546;28;20045;-46
2023/03/19 00:58:19;;;;;;;5.20;2.83;;;11.00;99.90;;;;;;4968734;28;20518;-47
2023/03/19 01:00:45;;;;;;;4.45;2.60;;;11.00;99.90;;;;;;4953423;28;20051;-47
2023/03/19 01:03:10;;;;;;;7.00;3.25;;;11.10;99.90;;;;;;4953876;28;20040;-51
2023/03/19 01:05:36;;;;;;;5.47;2.95;;;11.00;99.90;;;;;;4953702;28;20050;-47
2023/03/19 01:08:02;;;;;;;4.80;3.08;;;10.90;99.90;;;;;;4953109;28;20482;-47
2023/03/19 01:10:28;;;;;;;5.30;3.08;;;10.90;99.90;;;;;;4954261;28;20126;-48
2023/03/19 01:12:54;;;;;;;5.10;3.20;;;10.90;99.90;;;;;;4953490;28;20522;-48
2023/03/19 01:15:19;;;;;;;5.47;3.40;;;10.80;99.90;;;;;;4950180;28;20399;-48
2023/03/19 01:17:46;;;;;;;6.57;3.08;;;10.80;99.90;;;;;;4953400;28;20054;-49
2023/03/19 01:20:12;;;;;;;6.63;3.63;;;10.80;99.90;;;;;;4953682;28;20039;-50
2023/03/19 01:22:42;;;;;;;6.28;3.65;;;10.70;99.90;;;;;;4953474;28;20495;-49
2023/03/19 01:25:10;;;;;;;5.63;3.35;;;10.70;99.90;;;;;;4951211;29;20519;-46
2023/03/19 01:27:36;;;;;;;8.43;3.72;;;10.70;99.90;;;;;;4953505;28;20522;-48
2023/03/19 01:30:01;;;;;;;5.32;3.33;;;10.60;99.90;;;;;;4952270;29;20032;-48
2023/03/19 01:32:27;;;;;;;6.18;3.22;;;10.60;99.90;;;;;;4934976;29;20043;-49
2023/03/19 01:34:53;;;;;;;4.70;3.17;;;10.50;99.90;;;;;;4952093;29;20379;-48
2023/03/19 01:37:19;;;;;;;5.43;3.30;;;10.60;99.90;;;;;;4950956;29;20118;-47
2023/03/19 01:39:45;;;;;;;4.47;3.05;;;10.50;99.90;;;;;;4952911;28;20046;-46
2023/03/19 01:42:12;;;;;;;5.85;3.30;;;10.50;99.90;;;;;;4951764;28;20046;-46
2023/03/19 01:44:39;;;;;;;6.53;3.47;;;10.50;99.90;;;;;;4952056;29;20037;-49
2023/03/19 01:47:18;;;;;;;6.35;3.50;;;10.50;99.90;;;;;;4950829;29;20046;-50
2023/03/19 01:49:50;;;;;;;5.70;3.25;;;10.40;99.90;;;;;;4953405;28;20035;-49
2023/03/19 01:52:15;;;;;;;7.40;3.47;;;10.50;99.90;;;;;;4953016;28;20028;-48
2023/03/19 01:54:43;;;;;;;5.90;3.50;;;10.50;99.90;;;;;;4952340;28;20510;-50
2023/03/19 01:57:12;;;;;;;6.38;3.63;;;10.40;99.90;;;;;;4952810;28;20039;-46
2023/03/19 01:59:45;;;;;;;4.65;3.45;;;10.40;99.90;;;;;;4948677;29;20051;-48
2023/03/19 02:02:29;;;;;;;5.85;3.72;;;10.30;99.90;;;;;;4949515;29;20054;-49
2023/03/19 02:05:13;;;;;;;5.18;3.30;;;10.30;99.90;;;;;;4952765;28;20055;-50
2023/03/19 02:07:41;;;;;;;6.43;3.38;;;10.40;99.90;;;;;;4953233;28;20163;-48
2023/03/19 02:10:13;;;;;;;6.05;3.75;;;10.30;99.90;;;;;;4949904;29;20047;-51
2023/03/19 02:12:39;;;;;;;6.25;3.67;;;10.30;99.90;;;;;;4951530;28;20046;-46
2023/03/19 02:15:06;;;;;;;7.60;3.70;;;10.40;99.90;;;;;;4952783;28;20047;-50
2023/03/19 02:17:32;;;;;;;6.38;3.50;;;10.30;99.90;;;;;;4967203;28;20058;-45
2023/03/19 02:20:24;;;;;;;5.28;3.97;;;10.40;99.90;;;;;;4951004;28;20062;-45
2023/03/19 02:23:24;;;;;;;5.82;3.38;;;10.40;99.90;;;;;;4952633;28;20400;-49
2023/03/19 02:26:02;;;;;;;6.85;3.67;;;10.40;99.90;;;;;;4952455;28;20126;-50
2023/03/19 02:28:29;;;;;;;6.28;4.03;;;10.30;99.90;;;;;;4952751;28;20493;-47
2023/03/19 02:30:54;;;;;;;6.53;3.20;;;10.40;99.90;;;;;;4950651;28;20044;-46
2023/03/19 02:33:20;;;;;;;5.97;3.30;;;10.30;99.90;;;;;;4952528;28;20398;-49
2023/03/19 02:35:49;;;;;;;5.97;3.50;;;10.30;99.90;;;;;;4949699;28;20036;-46
2023/03/19 02:38:15;;;;;;;6.00;3.67;;;10.30;99.90;;;;;;4952635;28;20059;-47
2023/03/19 02:40:48;;;;;;;5.80;3.75;;;10.40;99.90;;;;;;4952129;28;20043;-47
2023/03/19 02:43:14;;;;;;;6.57;3.33;;;10.30;99.90;;;;;;4952322;28;20329;-47
2023/03/19 02:45:40;;;;;;;6.55;3.72;;;10.30;99.90;;;;;;4950161;29;20106;-49
2023/03/19 02:48:06;;;;;;;5.32;3.63;;;10.20;99.90;;;;;;4952656;28;20126;-47
2023/03/19 02:50:32;;;;;;;6.47;3.88;;;10.20;99.90;;;;;;4952739;28;20049;-48
2023/03/19 02:52:57;;;;;;;6.75;3.63;;;10.20;99.90;;;;;;4952348;28;20545;-49
2023/03/19 02:55:23;;;;;;;6.40;4.38;;;10.10;99.90;;;;;;4951228;28;20066;-47
2023/03/19 02:57:49;;;;;;;6.22;4.13;;;10.00;99.90;;;;;;4951848;28;20067;-48
2023/03/19 03:00:19;;;;;;;7.85;3.72;;;10.10;99.90;;;;;;4951863;28;20051;-47
2023/03/19 03:02:45;;;;;;;6.68;4.00;;;10.00;99.90;;;;;;4952748;28;20051;-45
2023/03/19 03:05:12;;;;;;;8.20;4.30;;;10.00;99.90;;;;;;4966988;28;20039;-48
2023/03/19 03:07:39;;;;;;;5.72;3.67;;;10.10;99.90;;;;;;4951580;28;20035;-49
2023/03/19 03:10:05;;;;;;;6.22;3.58;;;10.00;99.90;;;;;;4951858;28;20050;-51
2023/03/19 03:12:31;;;;;;;5.88;3.60;;;10.10;99.90;;;;;;4952361;28;20043;-49
2023/03/19 03:14:57;;;;;;;6.60;4.05;;;10.00;99.90;;;;;;4951567;28;20047;-49
2023/03/19 03:17:23;;;;;;;7.05;4.07;;;10.00;99.90;;;;;;4951948;28;20043;-45
2023/03/19 03:19:48;;;;;;;6.20;3.35;;;10.10;99.90;;;;;;4950545;29;20487;-47
2023/03/19 03:22:14;;;;;;;7.97;4.10;;;10.00;99.90;;;;;;4951581;28;20059;-50
2023/03/19 03:24:40;;;;;;;6.65;4.00;;;9.90;99.90;;;;;;4951559;28;20108;-48
2023/03/19 03:27:05;;;;;;;7.82;4.35;;;10.10;99.90;;;;;;4949618;29;20554;-48
2023/03/19 03:29:31;;;;;;;6.10;3.65;;;10.00;99.90;;;;;;4951878;28;20379;-48
2023/03/19 03:31:57;;;;;;;10.05;4.03;;;10.00;99.90;;;;;;4952573;28;20044;-46
2023/03/19 03:34:22;;;;;;;6.82;4.25;;;10.00;99.90;;;;;;4954315;28;20098;-46
2023/03/19 03:36:48;;;;;;;6.03;3.88;;;9.90;99.90;;;;;;4954759;28;20055;-47
2023/03/19 03:39:14;;;;;;;6.72;4.43;;;9.90;99.90;;;;;;4955642;28;20423;-45
2023/03/19 03:41:39;;;;;;;7.22;4.25;;;9.90;99.90;;;;;;4955174;28;20090;-45
2023/03/19 03:44:05;;;;;;;8.10;4.60;;;9.90;99.90;;;;;;4954652;28;20050;-45
2023/03/19 03:46:31;;;;;;;8.02;4.70;;;10.00;99.90;;;;;;4953820;28;20149;-46
2023/03/19 03:48:56;;;;;;;8.73;4.90;;;9.90;99.90;;;;;;4955039;28;20122;-48
2023/03/19 03:51:22;;;;;;;8.57;5.03;;;9.90;99.90;;;;;;4955127;28;20035;-48
2023/03/19 03:53:48;;;;;;;6.95;5.07;;;9.80;99.90;;;;;;4954949;28;20035;-47
2023/03/19 03:56:14;;;;;;;9.15;5.68;;;9.90;99.90;;;;;;4954930;28;20051;-48
2023/03/19 03:58:40;;;;;;;8.57;5.40;;;9.90;99.90;;;;;;4955154;28;20047;-50
2023/03/19 04:01:06;;;;;;;6.95;5.10;;;9.80;99.90;;;;;;4954264;28;20098;-45
2023/03/19 04:03:32;;;;;;;7.80;5.45;;;9.80;99.90;;;;;;4953412;29;20039;-47
2023/03/19 04:05:58;;;;;;;8.45;5.47;;;9.70;99.90;;;;;;4954390;28;20051;-47
2023/03/19 04:08:24;;;;;;;8.27;5.32;;;9.70;99.90;;;;;;4955072;28;20427;-47
2023/03/19 04:10:49;;;;;;;9.85;5.50;;;9.60;99.90;;;;;;4954753;28;20487;-46
2023/03/19 04:13:15;;;;;;;8.48;5.53;;;9.70;99.90;;;;;;4954275;28;20479;-45
2023/03/19 04:15:42;;;;;;;9.43;5.60;;;9.70;99.90;;;;;;4953441;28;20044;-48
2023/03/19 04:18:08;;;;;;;9.27;5.70;;;9.60;99.90;;;;;;4953555;29;20074;-47
2023/03/19 04:20:34;;;;;;;10.38;6.00;;;9.60;99.90;;;;;;4954824;28;20039;-49
2023/03/19 04:23:00;;;;;;;8.13;5.72;;;9.60;99.90;;;;;;4952618;29;20043;-49
2023/03/19 04:25:27;;;;;;;9.82;5.75;;;9.50;99.90;;;;;;4954634;28;20039;-46
2023/03/19 04:27:55;;;;;;;8.02;5.50;;;9.50;99.90;;;;;;4954409;28;20042;-46
2023/03/19 04:30:21;;;;;;;9.57;5.22;;;9.60;99.90;;;;;;4954568;28;20039;-45
2023/03/19 04:32:46;;;;;;;7.32;5.38;;;9.50;99.90;;;;;;4954249;28;20043;-47
2023/03/19 04:35:12;;;;;;;9.13;5.50;;;9.60;99.90;;;;;;4954165;28;20058;-49
2023/03/19 04:37:38;;;;;;;10.07;5.60;;;9.40;99.90;;;;;;4953515;29;20071;-46
2023/03/19 04:40:05;;;;;;;7.03;4.97;;;9.40;99.90;;;;;;4953040;28;20046;-49
2023/03/19 04:42:30;;;;;;;8.43;5.10;;;9.30;99.90;;;;;;4951941;28;20399;-50
2023/03/19 04:44:56;;;;;;;6.90;4.47;;;9.40;99.90;;;;;;4954302;28;20046;-48
2023/03/19 04:47:22;;;;;;;8.18;5.20;;;9.30;99.90;;;;;;4954086;28;20038;-48
2023/03/19 04:49:47;;;;;;;8.82;5.30;;;9.30;99.90;;;;;;4953723;28;20046;-49
2023/03/19 04:52:13;;;;;;;8.63;5.40;;;9.30;99.90;;;;;;4954409;28;20039;-47
2023/03/19 04:54:39;;;;;;;8.75;4.97;;;9.20;99.90;;;;;;4968930;28;20090;-45
2023/03/19 04:57:05;;;;;;;7.18;5.00;;;9.00;99.90;;;;;;4953992;28;20125;-46
2023/03/19 04:59:30;;;;;;;8.70;5.60;;;9.10;99.90;;;;;;4953529;28;20122;-54
2023/03/19 05:01:56;;;;;;;8.27;4.82;;;9.10;99.90;;;;;;4953805;28;20035;-50
2023/03/19 05:04:22;;;;;;;7.35;4.80;;;9.10;99.90;;;;;;4953694;28;20051;-46
2023/03/19 05:06:49;;;;;;;7.13;5.28;;;9.00;99.90;;;;;;4953883;28;20043;-47
2023/03/19 05:09:15;;;;;;;8.45;5.85;;;9.00;99.90;;;;;;4954192;28;20581;-46
2023/03/19 05:11:40;;;;;;;8.13;5.32;;;8.90;99.90;;;;;;4953050;28;20498;-46
2023/03/19 05:14:07;;;;;;;7.85;5.22;;;8.90;99.90;;;;;;4953803;28;20039;-49
2023/03/19 05:16:34;;;;;;;7.30;5.18;;;8.90;99.90;;;;;;4951465;29;20047;-49
2023/03/19 05:19:00;;;;;;;8.38;5.15;;;8.80;99.90;;;;;;4953289;28;20070;-50
2023/03/19 05:21:26;;;;;;;7.53;4.95;;;8.80;99.90;;;;;;4953860;28;20413;-47
2023/03/19 05:23:53;;;;;;;8.25;5.72;;;8.70;99.90;;;;;;4952521;28;20054;-46
2023/03/19 05:26:20;;;;;;;9.82;6.28;;;8.80;99.90;;;;;;4953501;28;20047;-46
2023/03/19 05:28:46;;;;;;;8.32;6.05;;;8.70;99.90;;;;;;4953647;28;20403;-46
2023/03/19 05:31:11;;;;;;;10.45;6.38;;;8.70;99.90;;;;;;4953138;28;20090;-46
2023/03/19 05:33:37;;;;;;;8.73;6.00;;;8.80;99.90;;;;;;4952083;28;20039;-49
2023/03/19 05:36:03;;;;;;;9.85;5.70;;;8.70;99.90;;;;;;4952659;28;20061;-49
2023/03/19 05:38:29;;;;;;;9.18;5.88;;;8.80;99.90;;;;;;4953598;28;20078;-49
2023/03/19 05:40:54;;;;;;;8.50;6.35;;;8.60;99.90;;;;;;4952176;28;20039;-48
2023/03/19 05:43:21;;;;;;;9.63;6.50;;;8.60;99.90;;;;;;4951925;28;20040;-48
2023/03/19 05:45:53;;;;;;;9.32;6.45;;;8.70;99.90;;;;;;4953244;28;20043;-46
2023/03/19 05:48:19;;;;;;;9.27;6.30;;;8.50;99.90;;;;;;4951503;28;20035;-47
2023/03/19 05:50:44;;;;;;;9.23;6.43;;;8.60;99.90;;;;;;4967378;28;20039;-47
2023/03/19 05:53:10;;;;;;;11.88;6.65;;;8.60;99.90;;;;;;4952297;28;20055;-48
2023/03/19 05:55:36;;;;;;;9.57;6.60;;;8.50;99.90;;;;;;4952902;28;20039;-48
2023/03/19 05:58:01;;;;;;;11.05;7.25;;;8.60;99.90;;;;;;4952762;28;20106;-46
2023/03/19 06:00:27;;;;;;;11.85;7.20;;;8.40;99.90;;;;;;4951244;28;20062;-48
2023/03/19 06:02:53;;;;;;;11.90;7.63;;;8.60;99.90;;;;;;4950855;28;20497;-45
2023/03/19 06:05:20;;;;;;;13.05;7.50;;;8.50;99.90;;;;;;4951509;28;20054;-53
2023/03/19 06:07:45;;;;;;;12.38;8.15;;;8.40;99.90;;;;;;4953730;28;20054;-49
2023/03/19 06:10:11;;;;;;;12.18;7.88;;;8.60;99.90;;;;;;4968312;28;20043;-46
2023/03/19 06:12:37;;;;;;;11.25;7.95;;;8.30;99.90;;;;;;4952520;28;20574;-50
2023/03/19 06:15:03;;;;;;;13.43;8.30;;;8.40;99.90;;;;;;4951531;29;20118;-48
2023/03/19 06:17:29;;;;;;;12.73;8.35;;;8.60;99.90;;;;;;4952468;28;20039;-50
2023/03/19 06:19:55;;;;;;;11.77;8.40;;;8.50;99.90;;;;;;4951779;28;20035;-46
2023/03/19 06:22:20;;;;;;;11.70;7.50;;;8.50;99.90;;;;;;4952703;28;20097;-49
2023/03/19 06:24:46;;;;;;;13.57;8.75;;;8.40;99.90;;;;;;4952461;28;20043;-47
2023/03/19 06:27:12;;;;;;;12.65;8.73;;;8.50;99.90;;;;;;4952295;28;20390;-49
2023/03/19 06:29:38;;;;;;;13.70;9.13;;;8.50;99.90;;;;;;4952695;28;20046;-49
2023/03/19 06:32:04;;;;;;;14.90;9.90;;;8.50;99.90;;;;;;4951786;28;20031;-48
2023/03/19 06:34:29;;;;;;;14.40;9.85;;;8.60;99.90;;;;;;4950807;29;20190;-48
2023/03/19 06:36:55;;;;;;;13.07;8.40;;;8.40;99.90;;;;;;4951604;28;20059;-51
2023/03/19 06:39:21;;;;;;;15.18;9.80;;;8.60;99.90;;;;;;4951343;29;20372;-48
2023/03/19 06:41:47;;;;;;;13.38;9.32;;;8.60;99.90;;;;;;4952154;28;20133;-48
2023/03/19 06:44:13;;;;;;;13.98;9.90;;;8.70;99.90;;;;;;4951104;28;20201;-48
2023/03/19 06:46:38;;;;;;;15.52;10.30;;;8.60;99.90;;;;;;4966639;28;20035;-46
2023/03/19 06:49:04;;;;;;;14.45;9.90;;;8.90;99.90;;;;;;4951538;29;20713;-45
2023/03/19 06:51:30;;;;;;;14.85;9.27;;;8.70;99.90;;;;;;4950210;29;20178;-48
2023/03/19 06:53:56;;;;;;;14.70;9.50;;;8.90;99.90;;;;;;4952560;28;20031;-48
2023/03/19 06:56:21;;;;;;;14.18;9.90;;;8.80;99.90;;;;;;4951934;28;20062;-50
2023/03/19 06:58:47;;;;;;;15.73;10.20;;;9.00;99.90;;;;;;4950152;29;20126;-48
2023/03/19 07:01:13;;;;;;;15.90;10.02;;;9.00;99.90;;;;;;4951824;28;20043;-48
2023/03/19 07:03:39;;;;;;;14.65;9.70;;;8.90;99.90;;;;;;4950620;29;20043;-49
2023/03/19 07:06:06;;;;;;;13.85;9.75;;;8.90;99.90;;;;;;4951594;28;20047;-48
2023/03/19 07:08:32;;;;;;;16.27;11.32;;;9.00;99.90;;;;;;4956093;28;20090;-49
2023/03/19 07:11:06;;;;;;;14.63;10.98;;;8.90;99.90;;;;;;4954523;29;20032;-47
2023/03/19 07:13:33;;;;;;;16.73;11.40;;;9.10;99.90;;;;;;4955987;28;20466;-49
2023/03/19 07:15:59;;;;;;;17.45;11.75;;;9.30;99.90;;;;;;4956000;28;20039;-50
2023/03/19 07:18:25;;;;;;;16.08;12.38;;;9.10;99.90;;;;;;4953885;29;20082;-49
2023/03/19 07:20:52;;;;;;;17.05;11.43;;;9.40;99.90;;;;;;4955995;28;20071;-48
2023/03/19 07:23:18;;;;;;;15.52;11.10;;;9.20;99.90;;;;;;4954182;29;20039;-48
2023/03/19 07:25:44;;;;;;;15.95;11.90;;;9.50;99.90;;;;;;4955666;28;20043;-49
2023/03/19 07:28:10;;;;;;;15.77;12.27;;;9.50;99.90;;;;;;4955589;29;20387;-47
2023/03/19 07:30:37;;;;;;;16.35;12.68;;;9.60;99.90;;;;;;4955181;28;20118;-48
2023/03/19 07:33:03;;;;;;;17.95;12.73;;;9.70;99.90;;;;;;4955887;28;20415;-48
2023/03/19 07:35:29;;;;;;;20.38;13.82;;;9.70;99.90;;;;;;4954065;28;20046;-49
2023/03/19 07:37:55;;;;;;;19.33;13.10;;;9.70;99.90;;;;;;4953518;28;20151;-46
2023/03/19 07:40:20;;;;;;;19.20;14.45;;;9.80;99.90;;;;;;4955332;29;20047;-50
2023/03/19 07:42:46;;;;;;;16.60;12.75;;;10.00;99.90;;;;;;4955418;28;20058;-48
2023/03/19 07:45:12;;;;;;;20.05;13.93;;;9.90;99.90;;;;;;4954103;29;20130;-45
2023/03/19 07:47:38;;;;;;;18.17;13.05;;;10.00;99.90;;;;;;4954632;28;20028;-47
2023/03/19 07:50:05;;;;;;;19.65;13.18;;;10.00;99.90;;;;;;4955454;28;20094;-48
2023/03/19 07:52:31;;;;;;;19.13;13.02;;;10.10;99.90;;;;;;4955146;28;20039;-50
2023/03/19 07:54:56;;;;;;;21.92;14.30;;;10.10;99.90;;;;;;4951165;29;20467;-51
2023/03/19 07:57:24;;;;;;;21.30;15.68;;;10.00;99.90;;;;;;4954090;28;20043;-45
2023/03/19 07:59:50;;;;;;;22.30;15.35;;;10.20;99.90;;;;;;4953644;28;20376;-47
2023/03/19 08:02:16;;;;;;;20.25;15.13;;;10.20;99.90;;;;;;4953640;28;20503;-48
2023/03/19 08:04:42;;;;;;;22.90;15.45;;;10.10;99.90;;;;;;4953250;29;20055;-50
2023/03/19 08:07:11;;;;;;;21.88;15.90;;;10.30;99.90;;;;;;4954146;28;20046;-46
2023/03/19 08:09:41;;;;;;;21.08;15.40;;;10.10;99.90;;;;;;4951532;29;20171;-48
2023/03/19 08:12:07;;;;;;;22.70;15.48;;;10.30;99.90;;;;;;4954906;28;20032;-49
2023/03/19 08:14:33;;;;;;;21.17;14.75;;;10.30;99.90;;;;;;4955131;28;20039;-47
2023/03/19 08:17:00;;;;;;;21.77;15.13;;;10.10;99.90;;;;;;4954564;28;20407;-48
2023/03/19 08:19:25;;;;;;;18.98;14.15;;;10.20;99.90;;;;;;4953281;28;20051;-48
2023/03/19 08:21:51;;;;;;;21.20;15.40;;;10.20;99.90;;;;;;4953732;29;20110;-48
2023/03/19 08:24:17;;;;;;;23.45;17.13;;;10.20;99.90;;;;;;4954667;28;20050;-49
2023/03/19 08:26:43;;;;;;;23.20;16.42;;;10.30;99.90;;;;;;4954412;28;20490;-48
2023/03/19 08:29:09;;;;;;;22.63;15.77;;;10.30;99.90;;;;;;4951483;29;20074;-48
2023/03/19 08:31:34;;;;;;;22.58;17.15;;;10.30;99.90;;;;;;4944873;29;20126;-46
2023/03/19 08:34:02;;;;;;;23.83;16.98;;;10.40;99.90;;;;;;4944442;28;20600;-45
2023/03/19 08:36:27;;;;;;;24.38;17.23;;;10.40;99.90;;;;;;4945137;28;20507;-48
2023/03/19 08:38:53;;;;;;;24.25;17.73;;;10.30;99.90;;;;;;4944292;28;20043;-47
2023/03/19 08:41:20;;;;;;;21.92;15.93;;;10.30;99.90;;;;;;4942157;29;20475;-46
2023/03/19 08:43:46;;;;;;;20.05;15.68;;;10.40;99.90;;;;;;4941901;29;20468;-47
2023/03/19 08:46:12;;;;;;;22.08;16.33;;;10.50;99.90;;;;;;4944810;28;20095;-47
2023/03/19 08:48:37;;;;;;;22.42;16.35;;;10.50;99.90;;;;;;4944360;29;20035;-46
2023/03/19 08:51:03;;;;;;;22.90;15.98;;;10.60;99.90;;;;;;4943696;29;20119;-47
2023/03/19 08:53:30;;;;;;;21.98;16.63;;;10.60;99.90;;;;;;4969875;28;20404;-49
2023/03/19 08:55:59;;;;;;;22.58;16.30;;;10.60;99.90;;;;;;4944887;28;20495;-45
2023/03/19 08:58:25;;;;;;;23.23;17.48;;;10.70;99.90;;;;;;4942916;28;20031;-46
2023/03/19 09:00:52;;;;;;;20.75;16.23;;;10.70;99.90;;;;;;4943779;28;20043;-49
2023/03/19 09:03:18;;;;;;;22.08;16.23;;;10.70;99.90;;;;;;4943055;28;20283;-45
2023/03/19 09:05:44;;;;;;;21.88;16.88;;;10.70;99.90;;;;;;4943738;28;20061;-46
2023/03/19 09:08:10;;;;;;;21.60;15.60;;;10.70;99.90;;;;;;4943610;28;20031;-47
2023/03/19 09:10:36;;;;;;;22.13;15.18;;;10.80;99.90;;;;;;4942952;29;22870;-47
2023/03/19 09:13:02;;;;;;;20.85;15.23;;;10.70;99.90;;;;;;4941374;29;20035;-50
2023/03/19 09:15:28;;;;;;;19.55;14.70;;;10.70;99.90;;;;;;4943287;29;20555;-47
2023/03/19 09:17:53;;;;;;;20.13;15.80;;;10.80;99.90;;;;;;4944533;28;20077;-51
2023/03/19 09:20:19;;;;;;;21.10;15.60;;;10.80;99.90;;;;;;4944403;28;20043;-46
2023/03/19 09:22:45;;;;;;;20.80;15.70;;;10.70;99.90;;;;;;4942705;28;20498;-47
2023/03/19 09:25:11;;;;;;;24.65;15.13;;;10.70;99.90;;;;;;4942483;29;20459;-50
2023/03/19 09:27:37;;;;;;;20.20;15.93;;;10.70;99.90;;;;;;4942189;29;20054;-47
2023/03/19 09:30:03;;;;;;;21.65;14.70;;;10.70;99.90;;;;;;4941389;28;20031;-47
2023/03/19 09:32:29;;;;;;;21.80;15.80;;;10.80;99.90;;;;;;4941061;29;20587;-51
2023/03/19 09:34:56;;;;;;;23.33;16.98;;;10.90;99.90;;;;;;4943230;29;20043;-49
2023/03/19 09:37:22;;;;;;;21.92;16.20;;;10.70;99.90;;;;;;4943072;28;20114;-47
2023/03/19 09:39:47;;;;;;;20.85;15.55;;;10.70;99.90;;;;;;4942428;29;20047;-50
2023/03/19 09:42:36;;;;;;;22.95;16.38;;;10.70;99.90;;;;;;4942651;28;20058;-48
2023/03/19 09:45:03;;;;;;;20.48;15.25;;;10.60;99.90;;;;;;4941258;29;20039;-47
2023/03/19 09:47:32;;;;;;;19.33;15.20;;;10.70;99.90;;;;;;4942437;28;20032;-49
2023/03/19 09:50:17;;;;;;;20.48;15.63;;;10.60;99.90;;;;;;4942644;29;20039;-47
2023/03/19 09:52:53;;;;;;;21.05;16.52;;;10.60;99.90;;;;;;4935156;28;20076;-50
2023/03/19 09:55:27;;;;;;;22.15;16.23;;;10.70;99.90;;;;;;4941763;29;20051;-49
2023/03/19 09:57:56;;;;;;;23.73;16.92;;;10.70;99.90;;;;;;4939868;29;20094;-49
2023/03/19 10:00:37;;;;;;;21.88;15.77;;;10.70;99.90;;;;;;4939774;29;20106;-53
2023/03/19 10:03:40;;;;;;;22.08;16.90;;;10.70;99.90;;;;;;4940185;29;20031;-49
2023/03/19 10:06:18;;;;;;;23.95;16.85;;;10.70;99.90;;;;;;4939788;29;20047;-49
2023/03/19 10:09:10;;;;;;;23.55;16.27;;;10.80;99.90;;;;;;4938970;29;20035;-49
2023/03/19 10:11:56;;;;;;;19.52;15.15;;;10.80;99.90;;;;;;4940038;29;20039;-52
2023/03/19 10:15:00;;;;;;;24.17;16.02;;;10.80;99.90;;;;;;4938847;29;20163;-50
2023/03/19 10:17:32;;;;;;;21.08;14.82;;;10.80;99.90;;;;;;4947528;28;21114;-50
2023/03/19 10:20:15;;;;;;;25.80;16.25;;;10.80;99.90;;;;;;4940063;29;21427;-48
2023/03/19 10:22:46;;;;;;;19.92;15.77;;;10.80;99.90;;;;;;4942270;28;20048;-48
2023/03/19 10:25:20;;;;;;;21.17;16.17;;;10.80;99.90;;;;;;4924400;29;20146;-49
2023/03/19 10:27:49;;;;;;;22.13;15.95;;;10.80;99.90;;;;;;4939449;28;20067;-50
2023/03/19 10:30:16;;;;;;;21.23;15.57;;;10.90;99.90;;;;;;4940824;29;20043;-48
2023/03/19 10:32:45;;;;;;;20.45;15.75;;;10.90;99.90;;;;;;4941135;28;20122;-50
2023/03/19 10:35:33;;;;;;;20.60;16.13;;;11.00;99.90;;;;;;4943301;28;20043;-49
2023/03/19 10:38:23;;;;;;;24.10;17.33;;;11.20;99.90;;;;;;4942180;29;20055;-49
2023/03/19 10:41:31;;;;;;;20.48;15.43;;;11.10;99.90;;;;;;4942377;28;20071;-46
2023/03/19 10:44:04;;;;;;;22.23;15.38;;;11.20;99.90;;;;;;4931822;28;20162;-49
2023/03/19 10:46:37;;;;;;;21.40;16.73;;;11.20;99.90;;;;;;4941740;29;20055;-47
2023/03/19 10:49:03;;;;;;;21.08;15.50;;;11.40;99.90;;;;;;4943044;29;20821;-48
2023/03/19 10:51:30;;;;;;;19.40;16.92;;;11.50;99.90;;;;;;4943184;28;20039;-47
2023/03/19 10:54:00;;;;;;;19.92;15.70;;;11.50;99.90;;;;;;4940685;29;20085;-47
2023/03/19 10:56:31;;;;;;;20.98;15.45;;;11.60;99.90;;;;;;4942283;29;20039;-47
2023/03/19 10:58:56;;;;;;;19.38;16.33;;;11.70;99.90;;;;;;4942275;28;20031;-49
2023/03/19 11:01:33;;;;;;;18.25;16.25;;;11.80;99.90;;;;;;4942919;28;20028;-47
2023/03/19 11:04:02;;;;;;;18.45;16.17;;;11.90;99.90;;;;;;4940757;29;20078;-50
2023/03/19 11:06:30;;;;;;;18.30;14.73;;;12.00;99.90;;;;;;4942349;29;20044;-48
2023/03/19 11:09:12;;;;;;;18.67;15.60;;;12.20;99.90;;;;;;4941281;29;20040;-47
2023/03/19 11:11:48;;;;;;;16.88;14.27;;;12.30;99.90;;;;;;4943756;28;20808;-48
2023/03/19 11:14:19;;;;;;;20.65;16.35;;;12.50;99.90;;;;;;4943231;29;20040;-49
2023/03/19 11:17:20;;;;;;;17.80;15.43;;;12.50;99.90;;;;;;4940126;29;20043;-51
2023/03/19 11:19:52;;;;;;;17.67;14.18;;;12.60;99.90;;;;;;4940044;29;20054;-47
2023/03/19 11:22:28;;;;;;;17.13;13.95;;;12.80;99.90;;;;;;4939172;29;20043;-48
2023/03/19 11:25:01;;;;;;;16.48;13.77;;;12.80;99.90;;;;;;4942192;28;20051;-46
2023/03/19 11:27:33;;;;;;;15.40;13.65;;;12.80;99.90;;;;;;4941195;29;20043;-46
2023/03/19 11:30:00;;;;;;;18.33;14.02;;;12.90;99.90;;;;;;4942331;29;20043;-47
2023/03/19 11:32:47;;;;;;;17.65;14.40;;;13.00;99.90;;;;;;4940375;28;20506;-49
2023/03/19 11:35:12;;;;;;;17.15;14.68;;;13.00;99.90;;;;;;4940833;29;20490;-47
2023/03/19 11:37:50;;;;;;;19.95;15.20;;;13.10;99.90;;;;;;4938564;29;20043;-49
2023/03/19 11:40:24;;;;;;;18.42;15.13;;;13.20;99.90;;;;;;4940779;29;20106;-52
2023/03/19 11:43:12;;;;;;;17.45;14.90;;;13.70;99.90;;;;;;4940712;29;20114;-51
2023/03/19 11:46:19;;;;;;;16.20;13.90;;;13.30;99.90;;;;;;4941346;29;20134;-47
2023/03/19 11:48:45;;;;;;;19.42;15.30;;;13.40;99.90;;;;;;4902278;29;20032;-47
2023/03/19 11:51:35;;;;;;;17.65;14.18;;;13.60;99.90;;;;;;4902234;29;20040;-47
2023/03/19 11:54:21;;;;;;;18.15;14.77;;;13.80;99.90;;;;;;4929330;29;20035;-46
2023/03/19 11:56:59;;;;;;;17.25;14.02;;;13.90;99.90;;;;;;4945143;29;20137;-49
2023/03/19 12:00:03;;;;;;;17.55;13.95;;;14.10;99.90;;;;;;4952333;29;20447;-45
2023/03/19 12:02:56;;;;;;;19.42;14.73;;;14.30;99.90;;;;;;4953200;28;20106;-46
2023/03/19 12:05:54;;;;;;;16.85;14.27;;;14.20;99.90;;;;;;4953233;29;20043;-50
2023/03/19 12:08:29;;;;;;;17.45;14.93;;;14.20;99.90;;;;;;4953326;29;20386;-48
2023/03/19 12:11:16;;;;;;;19.77;15.27;;;14.20;99.90;;;;;;4954205;28;20039;-48
2023/03/19 12:13:54;;;;;;;18.95;15.85;;;14.00;99.90;;;;;;4954818;28;20043;-49
2023/03/19 12:16:44;;;;;;;18.83;14.98;;;13.90;99.90;;;;;;4937366;29;20494;-50
2023/03/19 12:19:31;;;;;;;19.63;15.20;;;13.80;99.90;;;;;;4955124;28;20439;-50
2023/03/19 12:22:24;;;;;;;20.55;15.63;;;13.80;99.90;;;;;;4954812;29;20106;-47
2023/03/19 12:25:08;;;;;;;19.85;15.93;;;13.80;99.90;;;;;;4955059;29;20042;-45
2023/03/19 12:27:50;;;;;;;19.90;16.85;;;13.80;99.90;;;;;;4954705;29;20040;-50
2023/03/19 12:30:31;;;;;;;22.92;17.65;;;13.80;99.90;;;;;;4954518;29;20031;-49
2023/03/19 12:33:08;;;;;;;21.15;17.45;;;13.90;99.90;;;;;;4952748;29;20558;-49
2023/03/19 12:35:37;;;;;;;21.25;17.45;;;13.70;99.90;;;;;;4954886;29;20379;-50
2023/03/19 12:38:24;;;;;;;20.23;16.00;;;13.60;99.90;;;;;;4954315;28;20086;-44
2023/03/19 12:41:02;;;;;;;21.10;16.23;;;13.50;99.90;;;;;;4954621;29;20141;-48
2023/03/19 12:43:50;;;;;;;19.10;15.07;;;13.40;99.90;;;;;;4953294;29;20066;-47
2023/03/19 12:46:37;;;;;;;21.40;15.95;;;13.30;99.90;;;;;;4954144;28;20082;-50
2023/03/19 12:49:09;;;;;;;18.38;14.65;;;13.30;99.90;;;;;;4953672;28;20035;-49
2023/03/19 12:51:40;;;;;;;19.73;15.68;;;13.50;99.90;;;;;;4954297;28;20054;-48
2023/03/19 12:54:06;;;;;;;19.92;16.05;;;13.50;99.90;;;;;;4954503;29;20057;-48